Time;durP1;ratioP1;P1;durP2;ratioP2;P2;SDS_P1;SDS_P2;PMS_P1;PMS_P2;Temp;Humidity;BMP_temperature;BMP_pressure;BME280_temperature;BME280_humidity;BME280_pressure;Samples;Min_cycle;Max_cycle;Signal;HPM_P1;HPM_P2
2023/10/25 00:00:36;;;;;;;0.00;0.00;;;;;;;9.45;100.00;100077.66;5110143;28;20035;-42
2023/10/25 00:03:02;;;;;;;0.00;0.00;;;;;;;9.42;100.00;100077.19;5109211;28;20071;-43
2023/10/25 00:05:32;;;;;;;0.00;0.00;;;;;;;9.39;100.00;100077.56;5109603;28;20110;-43
2023/10/25 00:07:58;;;;;;;0.00;0.00;;;;;;;9.33;100.00;100071.13;5094201;28;20085;-43
2023/10/25 00:10:23;;;;;;;0.00;0.00;;;;;;;9.29;100.00;100071.69;5110030;28;20031;-43
2023/10/25 00:12:49;;;;;;;0.00;0.00;;;;;;;9.25;100.00;100065.06;5110690;28;20032;-43
2023/10/25 00:15:14;;;;;;;0.00;0.00;;;;;;;9.23;100.00;100060.69;5110582;28;20019;-42
2023/10/25 00:17:40;;;;;;;0.00;0.00;;;;;;;9.21;100.00;100059.22;5109235;28;20113;-43
2023/10/25 00:20:06;;;;;;;0.00;0.00;;;;;;;9.18;100.00;100065.81;5110473;28;20133;-42
2023/10/25 00:22:31;;;;;;;0.00;0.00;;;;;;;9.16;100.00;100050.91;5109625;28;20465;-43
2023/10/25 00:24:57;;;;;;;0.00;0.00;;;;;;;9.15;100.00;100057.31;5110106;28;20027;-43
2023/10/25 00:27:23;;;;;;;0.00;0.00;;;;;;;9.15;100.00;100060.81;5110265;28;20285;-43
2023/10/25 00:29:48;;;;;;;0.00;0.00;;;;;;;9.16;100.00;100053.59;5110046;28;20020;-43
2023/10/25 00:32:16;;;;;;;0.00;0.00;;;;;;;9.18;100.00;100055.06;5120420;28;20038;-43
2023/10/25 00:34:42;;;;;;;0.00;0.00;;;;;;;9.17;100.00;100057.97;5109042;28;20106;-42
2023/10/25 00:37:07;;;;;;;0.00;0.00;;;;;;;9.14;100.00;100061.03;5107838;28;20103;-43
2023/10/25 00:39:33;;;;;;;0.00;0.00;;;;;;;9.14;100.00;100048.44;5107580;28;20080;-45
2023/10/25 00:41:58;;;;;;;0.00;0.00;;;;;;;9.16;100.00;100061.66;5108721;28;20119;-42
2023/10/25 00:44:23;;;;;;;0.00;0.00;;;;;;;9.18;100.00;100059.63;5108265;28;20034;-43
2023/10/25 00:46:49;;;;;;;0.00;0.00;;;;;;;9.19;100.00;100051.38;5109171;28;20466;-42
2023/10/25 00:49:15;;;;;;;0.00;0.00;;;;;;;9.21;100.00;100054.69;5108757;28;20081;-42
2023/10/25 00:51:40;;;;;;;0.00;0.00;;;;;;;9.21;100.00;100053.84;5109004;28;20359;-42
2023/10/25 00:54:06;;;;;;;0.00;0.00;;;;;;;9.15;100.00;100051.94;5109353;28;20026;-43
2023/10/25 00:56:33;;;;;;;0.00;0.00;;;;;;;9.14;100.00;100042.25;5090443;28;20077;-43
2023/10/25 00:58:59;;;;;;;0.00;0.00;;;;;;;9.11;100.00;100042.59;5108327;28;20408;-42
2023/10/25 01:01:27;;;;;;;0.00;0.00;;;;;;;9.11;100.00;100039.91;5091203;28;20110;-43
2023/10/25 01:03:53;;;;;;;0.00;0.00;;;;;;;9.13;100.00;100041.38;5108079;28;20130;-42
2023/10/25 01:06:19;;;;;;;0.00;0.00;;;;;;;9.14;100.00;100044.94;5108973;28;20032;-42
2023/10/25 01:08:44;;;;;;;0.00;0.00;;;;;;;9.18;100.00;100047.00;5108715;28;20027;-42
2023/10/25 01:11:10;;;;;;;0.00;0.00;;;;;;;9.20;100.00;100046.84;5109283;28;20465;-43
2023/10/25 01:13:35;;;;;;;0.00;0.00;;;;;;;9.18;100.00;100044.34;5090099;28;20407;-43
2023/10/25 01:16:02;;;;;;;0.00;0.00;;;;;;;9.16;100.00;100037.50;5109176;28;20039;-43
2023/10/25 01:18:27;;;;;;;0.00;0.00;;;;;;;9.16;100.00;100029.44;5107765;28;20073;-43
2023/10/25 01:20:53;;;;;;;0.00;0.00;;;;;;;9.13;100.00;100030.66;5107616;28;20330;-43
2023/10/25 01:23:19;;;;;;;0.00;0.00;;;;;;;9.11;100.00;100031.88;5108568;28;20106;-43
2023/10/25 01:25:44;;;;;;;0.00;0.00;;;;;;;9.07;100.00;100031.44;5108831;28;20114;-43
2023/10/25 01:28:10;;;;;;;0.00;0.00;;;;;;;9.06;100.00;100031.59;5109340;28;20059;-43
2023/10/25 01:30:36;;;;;;;0.00;0.00;;;;;;;9.02;100.00;100023.13;5112691;28;20023;-44
2023/10/25 01:33:01;;;;;;;0.00;0.00;;;;;;;8.99;100.00;100018.97;5112668;28;20484;-44
2023/10/25 01:35:27;;;;;;;0.00;0.00;;;;;;;8.97;100.00;100021.00;5110366;28;20497;-42
2023/10/25 01:37:53;;;;;;;0.00;0.00;;;;;;;8.96;100.00;100019.34;5110137;28;20512;-43
2023/10/25 01:40:18;;;;;;;0.00;0.00;;;;;;;8.96;100.00;100008.63;5112228;28;20566;-44
2023/10/25 01:42:44;;;;;;;0.00;0.00;;;;;;;8.93;100.00;100003.63;5112178;28;20059;-44
2023/10/25 01:45:11;;;;;;;0.00;0.00;;;;;;;8.94;100.00;100007.16;5112072;28;20043;-43
2023/10/25 01:47:39;;;;;;;0.00;0.00;;;;;;;8.93;100.00;100009.00;5112135;28;20039;-43
2023/10/25 01:50:06;;;;;;;0.00;0.00;;;;;;;8.92;100.00;100011.88;5111006;28;20038;-43
2023/10/25 01:52:31;;;;;;;0.00;0.00;;;;;;;8.90;100.00;100004.03;5111570;28;20035;-43
2023/10/25 01:54:56;;;;;;;0.00;0.00;;;;;;;8.90;100.00;99992.44;5112618;28;20031;-43
2023/10/25 01:57:22;;;;;;;0.00;0.00;;;;;;;8.88;100.00;99984.59;5111780;28;20035;-44
2023/10/25 01:59:47;;;;;;;0.00;0.00;;;;;;;8.88;100.00;99992.66;5112979;28;20032;-43
2023/10/25 02:02:13;;;;;;;0.00;0.00;;;;;;;8.86;100.00;99992.00;5109812;28;20047;-44
2023/10/25 02:04:38;;;;;;;0.00;0.00;;;;;;;8.86;100.00;99986.63;5111381;28;20027;-43
2023/10/25 02:07:04;;;;;;;0.00;0.00;;;;;;;8.86;100.00;99989.31;5110583;28;20023;-43
2023/10/25 02:09:30;;;;;;;0.00;0.00;;;;;;;8.86;100.00;99989.31;5111848;28;20517;-43
2023/10/25 02:11:55;;;;;;;0.00;0.00;;;;;;;8.84;100.00;99977.94;5112093;28;20031;-44
2023/10/25 02:14:20;;;;;;;0.00;0.00;;;;;;;8.83;100.00;99981.66;5118401;27;20084;-44
2023/10/25 02:16:46;;;;;;;0.00;0.00;;;;;;;8.83;100.00;99975.47;5133118;27;20034;-44
2023/10/25 02:19:11;;;;;;;0.00;0.00;;;;;;;8.82;100.00;99977.31;5112670;27;20066;-44
2023/10/25 02:21:36;;;;;;;0.00;0.00;;;;;;;8.82;100.00;99971.97;5112280;28;20058;-45
2023/10/25 02:24:03;;;;;;;0.00;0.00;;;;;;;8.82;100.00;99955.88;5112859;28;20089;-42
2023/10/25 02:26:28;;;;;;;0.00;0.00;;;;;;;8.80;100.00;99960.59;5094277;28;20015;-43
2023/10/25 02:28:54;;;;;;;0.00;0.00;;;;;;;8.81;100.00;99956.03;5111994;28;20073;-43
2023/10/25 02:31:20;;;;;;;0.00;0.00;;;;;;;8.79;100.00;99958.91;5112099;28;20362;-43
2023/10/25 02:33:45;;;;;;;0.00;0.00;;;;;;;8.78;100.00;99963.44;5112381;28;20031;-44
2023/10/25 02:36:10;;;;;;;0.00;0.00;;;;;;;8.76;100.00;99975.38;5112072;28;20054;-43
2023/10/25 02:38:36;;;;;;;0.00;0.00;;;;;;;8.71;100.00;99956.34;5112410;28;20485;-42
2023/10/25 02:41:01;;;;;;;0.00;0.00;;;;;;;8.68;100.00;99957.56;5111058;28;20038;-44
2023/10/25 02:43:27;;;;;;;0.00;0.00;;;;;;;8.64;100.00;99955.47;5112447;28;20020;-43
2023/10/25 02:45:52;;;;;;;0.00;0.00;;;;;;;8.60;100.00;99951.50;5112237;28;20434;-43
2023/10/25 02:48:18;;;;;;;0.00;0.00;;;;;;;8.57;100.00;99950.84;5111744;28;20494;-43
2023/10/25 02:50:43;;;;;;;0.00;0.00;;;;;;;8.54;100.00;99950.41;5111875;28;20039;-42
2023/10/25 02:53:09;;;;;;;0.00;0.00;;;;;;;8.51;100.00;99950.81;5111749;28;20422;-43
2023/10/25 02:55:35;;;;;;;0.00;0.00;;;;;;;8.47;100.00;99950.34;5111543;28;20389;-45
2023/10/25 02:58:00;;;;;;;0.00;0.00;;;;;;;8.45;100.00;99946.19;5111191;28;20024;-44
2023/10/25 03:00:25;;;;;;;0.00;0.00;;;;;;;8.43;100.00;99946.38;5111803;28;20026;-43
2023/10/25 03:02:51;;;;;;;0.00;0.00;;;;;;;8.45;100.00;99946.19;5111592;28;20188;-43
2023/10/25 03:05:16;;;;;;;0.00;0.00;;;;;;;8.45;100.00;99938.13;5111577;28;20055;-43
2023/10/25 03:07:41;;;;;;;0.00;0.00;;;;;;;8.42;100.00;99936.66;5112923;27;20028;-43
2023/10/25 03:10:07;;;;;;;0.00;0.00;;;;;;;8.44;100.00;99937.31;5111696;27;20032;-43
2023/10/25 03:12:32;;;;;;;0.00;0.00;;;;;;;8.44;100.00;99942.69;5109886;28;20111;-43
2023/10/25 03:14:58;;;;;;;0.00;0.00;;;;;;;8.41;100.00;99929.66;5109031;28;20028;-44
2023/10/25 03:17:23;;;;;;;0.00;0.00;;;;;;;8.39;100.00;99928.16;5119508;27;20027;-44
2023/10/25 03:19:49;;;;;;;0.00;0.00;;;;;;;8.37;100.00;99939.06;5110970;28;20076;-43
2023/10/25 03:22:14;;;;;;;0.00;0.00;;;;;;;8.33;100.00;99933.25;5109814;28;20168;-43
2023/10/25 03:24:39;;;;;;;0.00;0.00;;;;;;;8.33;100.00;99935.94;5111316;28;20027;-44
2023/10/25 03:27:07;;;;;;;0.00;0.00;;;;;;;8.32;100.00;99925.38;5111153;28;20101;-43
2023/10/25 03:29:35;;;;;;;0.00;0.00;;;;;;;8.31;100.00;99921.06;5109324;28;20027;-43
2023/10/25 03:32:00;;;;;;;0.00;0.00;;;;;;;8.33;100.00;99919.84;5110757;28;20488;-43
2023/10/25 03:34:26;;;;;;;0.00;0.00;;;;;;;8.29;100.00;99912.38;5094517;28;20111;-43
2023/10/25 03:36:51;;;;;;;0.00;0.00;;;;;;;8.27;100.00;99911.75;5109530;27;20066;-43
2023/10/25 03:39:16;;;;;;;0.00;0.00;;;;;;;8.23;100.00;99905.09;5107357;28;20500;-43
2023/10/25 03:41:43;;;;;;;0.00;0.00;;;;;;;8.22;100.00;99908.81;5108713;28;20028;-44
2023/10/25 03:44:08;;;;;;;0.00;0.00;;;;;;;8.18;100.00;99905.66;5108844;28;20081;-43
2023/10/25 03:46:33;;;;;;;0.00;0.00;;;;;;;8.16;100.00;99899.63;5109042;28;20440;-44
2023/10/25 03:48:59;;;;;;;0.00;0.00;;;;;;;8.14;100.00;99899.84;5108816;28;20070;-44
2023/10/25 03:51:24;;;;;;;0.00;0.00;;;;;;;8.10;100.00;99903.09;5108465;28;20039;-43
2023/10/25 03:53:49;;;;;;;0.00;0.00;;;;;;;8.08;100.00;99903.28;5089924;28;20031;-44
2023/10/25 03:56:15;;;;;;;0.00;0.00;;;;;;;8.07;100.00;99896.25;5109064;28;20039;-43
2023/10/25 03:58:40;;;;;;;0.00;0.00;;;;;;;8.06;100.00;99902.66;5108121;28;20024;-44
2023/10/25 04:01:06;;;;;;;0.00;0.00;;;;;;;8.09;100.00;99899.59;5107689;28;20020;-44
2023/10/25 04:03:31;;;;;;;0.05;0.00;;;;;;;8.09;100.00;99888.88;5095496;28;20517;-43
2023/10/25 04:05:57;;;;;;;0.00;0.00;;;;;;;8.15;100.00;99892.63;5106891;28;20394;-44
2023/10/25 04:08:23;;;;;;;0.00;0.00;;;;;;;8.14;100.00;99886.44;5107601;28;20055;-44
2023/10/25 04:10:52;;;;;;;0.00;0.00;;;;;;;8.13;100.00;99884.78;5108393;28;20023;-44
2023/10/25 04:13:18;;;;;;;0.00;0.00;;;;;;;8.12;100.00;99883.13;5108114;28;20031;-44
2023/10/25 04:15:55;;;;;;;0.00;0.00;;;;;;;8.10;100.00;99879.78;5108387;28;20015;-44
2023/10/25 04:18:21;;;;;;;0.00;0.00;;;;;;;8.10;100.00;99876.28;5108313;28;20080;-44
2023/10/25 04:20:46;;;;;;;0.00;0.00;;;;;;;8.10;100.00;99879.78;5107954;28;20066;-44
2023/10/25 04:23:11;;;;;;;0.00;0.00;;;;;;;8.11;100.00;99873.44;5107721;28;20031;-44
2023/10/25 04:25:37;;;;;;;0.00;0.00;;;;;;;8.11;100.00;99877.97;5108201;28;20036;-43
2023/10/25 04:28:02;;;;;;;0.00;0.00;;;;;;;8.11;100.00;99875.28;5108192;28;20034;-44
2023/10/25 04:30:28;;;;;;;0.00;0.00;;;;;;;8.14;100.00;99875.72;5107670;28;20027;-43
2023/10/25 04:32:53;;;;;;;0.00;0.00;;;;;;;8.10;100.00;99869.06;5107727;28;20023;-42
2023/10/25 04:35:18;;;;;;;0.00;0.00;;;;;;;8.09;100.00;99867.44;5108407;28;20054;-44
2023/10/25 04:37:44;;;;;;;0.00;0.00;;;;;;;8.07;100.00;99858.75;5106101;28;20516;-43
2023/10/25 04:40:09;;;;;;;0.00;0.00;;;;;;;8.09;100.00;99856.72;5109291;28;20070;-43
2023/10/25 04:42:35;;;;;;;0.00;0.00;;;;;;;8.11;100.00;99854.69;5107518;28;20024;-43
2023/10/25 04:45:00;;;;;;;0.00;0.00;;;;;;;8.07;100.00;99850.69;5108259;28;20526;-43
2023/10/25 04:47:25;;;;;;;0.00;0.00;;;;;;;8.13;100.00;99852.59;5107639;28;20031;-45
2023/10/25 04:49:51;;;;;;;0.00;0.00;;;;;;;8.11;100.00;99837.78;5107618;28;20031;-43
2023/10/25 04:52:16;;;;;;;0.00;0.00;;;;;;;8.16;100.00;99831.81;5105031;28;20055;-43
2023/10/25 04:54:43;;;;;;;0.00;0.00;;;;;;;8.17;100.00;99831.63;5109128;28;20032;-43
2023/10/25 04:57:08;;;;;;;0.00;0.00;;;;;;;8.18;100.00;99833.28;5109627;28;20031;-43
2023/10/25 04:59:34;;;;;;;0.00;0.00;;;;;;;8.18;100.00;99830.59;5108913;28;20036;-45
2023/10/25 05:01:59;;;;;;;0.00;0.00;;;;;;;8.18;100.00;99824.41;5103763;28;20026;-44
2023/10/25 05:04:24;;;;;;;0.00;0.00;;;;;;;8.18;100.00;99825.25;5112587;28;20023;-43
2023/10/25 05:06:50;;;;;;;0.00;0.00;;;;;;;8.13;100.00;99820.44;5113354;28;20055;-43
2023/10/25 05:09:16;;;;;;;0.00;0.00;;;;;;;8.07;100.00;99818.53;5111337;28;20452;-43
2023/10/25 05:11:45;;;;;;;0.00;0.00;;;;;;;8.11;100.00;99821.69;5114250;28;20032;-43
2023/10/25 05:14:10;;;;;;;0.00;0.00;;;;;;;8.09;100.00;99807.66;5091730;28;20028;-44
2023/10/25 05:16:36;;;;;;;0.00;0.00;;;;;;;8.16;100.00;99807.69;5111488;28;20108;-43
2023/10/25 05:19:02;;;;;;;0.00;0.00;;;;;;;8.11;100.00;99805.63;5113818;28;20302;-44
2023/10/25 05:21:28;;;;;;;0.00;0.00;;;;;;;8.13;100.00;99807.06;5109296;28;20024;-42
2023/10/25 05:23:54;;;;;;;0.00;0.00;;;;;;;8.15;100.00;99814.91;5095356;28;20060;-43
2023/10/25 05:26:20;;;;;;;0.00;0.00;;;;;;;8.16;100.00;99813.06;5107376;28;20458;-45
2023/10/25 05:28:45;;;;;;;0.00;0.00;;;;;;;8.13;100.00;99814.25;5099089;28;20020;-43
2023/10/25 05:31:16;;;;;;;0.00;0.00;;;;;;;8.16;100.00;99813.06;5104484;28;20051;-43
2023/10/25 05:33:41;;;;;;;0.00;0.00;;;;;;;8.20;100.00;99808.97;5111595;28;20039;-44
2023/10/25 05:36:07;;;;;;;0.00;0.00;;;;;;;8.21;100.00;99807.94;5110839;28;20030;-43
2023/10/25 05:38:33;;;;;;;0.00;0.00;;;;;;;8.22;100.00;99807.78;5111989;28;20062;-43
2023/10/25 05:40:59;;;;;;;0.00;0.00;;;;;;;8.25;100.00;99801.19;5085038;28;20581;-43
2023/10/25 05:43:28;;;;;;;0.00;0.00;;;;;;;8.31;100.00;99798.56;5101751;28;20383;-43
2023/10/25 05:45:53;;;;;;;0.00;0.00;;;;;;;8.34;100.00;99800.03;5107752;27;20069;-44
2023/10/25 05:48:19;;;;;;;0.00;0.00;;;;;;;8.32;100.00;99802.06;5106522;28;20027;-44
2023/10/25 05:50:45;;;;;;;0.00;0.00;;;;;;;8.37;100.00;99805.00;5108117;27;20417;-45
2023/10/25 05:53:14;;;;;;;0.00;0.00;;;;;;;8.37;100.00;99799.63;5106068;28;20035;-44
2023/10/25 05:55:40;;;;;;;0.00;0.00;;;;;;;8.34;100.00;99795.50;5107439;28;20123;-44
2023/10/25 05:58:05;;;;;;;0.00;0.00;;;;;;;8.38;100.00;99789.75;5104935;28;20030;-45
2023/10/25 06:00:31;;;;;;;0.00;0.00;;;;;;;8.45;100.00;99793.34;5105379;28;20027;-44
2023/10/25 06:02:58;;;;;;;0.00;0.00;;;;;;;8.47;100.00;99792.13;5107535;28;20043;-44
2023/10/25 06:05:23;;;;;;;0.00;0.00;;;;;;;8.56;100.00;99784.78;5088405;28;20130;-44
2023/10/25 06:07:49;;;;;;;0.00;0.00;;;;;;;8.63;100.00;99784.81;5107804;28;20027;-43
2023/10/25 06:10:16;;;;;;;0.00;0.00;;;;;;;8.71;100.00;99779.31;5105327;28;20549;-43
2023/10/25 06:12:42;;;;;;;0.00;0.00;;;;;;;8.68;100.00;99768.97;5106950;28;20039;-43
2023/10/25 06:15:07;;;;;;;0.00;0.00;;;;;;;8.74;100.00;99769.03;5104772;28;20030;-43
2023/10/25 06:17:33;;;;;;;0.00;0.00;;;;;;;8.80;100.00;99764.72;5105806;28;20031;-43
2023/10/25 06:19:59;;;;;;;0.00;0.00;;;;;;;8.83;100.00;99750.91;5106577;28;20022;-43
2023/10/25 06:22:24;;;;;;;0.00;0.00;;;;;;;8.88;100.00;99753.00;5105751;28;20067;-42
2023/10/25 06:24:49;;;;;;;0.00;0.00;;;;;;;8.84;100.00;99763.28;5107019;28;20741;-42
2023/10/25 06:27:15;;;;;;;0.00;0.00;;;;;;;8.83;100.00;99755.47;5105891;28;20687;-44
2023/10/25 06:29:40;;;;;;;0.00;0.00;;;;;;;8.81;100.00;99752.13;5105758;28;20474;-43
2023/10/25 06:32:05;;;;;;;0.00;0.00;;;;;;;8.84;100.00;99741.84;5106288;28;20655;-42
2023/10/25 06:34:31;;;;;;;0.00;0.00;;;;;;;8.85;100.00;99743.50;5106687;28;20134;-43
2023/10/25 06:36:56;;;;;;;0.00;0.00;;;;;;;8.85;100.00;99735.47;5106849;28;20020;-43
2023/10/25 06:39:22;;;;;;;0.00;0.00;;;;;;;8.90;100.00;99732.16;5107157;28;20043;-44
2023/10/25 06:41:48;;;;;;;0.00;0.00;;;;;;;8.89;100.00;99730.50;5106272;28;20655;-44
2023/10/25 06:44:14;;;;;;;0.00;0.00;;;;;;;8.85;100.00;99731.94;5106408;28;20039;-44
2023/10/25 06:46:39;;;;;;;0.00;0.00;;;;;;;8.85;100.00;99731.94;5106090;28;20363;-43
2023/10/25 06:49:05;;;;;;;0.00;0.00;;;;;;;8.86;100.00;99729.06;5106146;28;20406;-44
2023/10/25 06:51:30;;;;;;;0.00;0.00;;;;;;;8.87;100.00;99725.31;5105929;28;20024;-44
2023/10/25 06:53:56;;;;;;;0.00;0.00;;;;;;;8.89;100.00;99728.66;5106770;28;20035;-44
2023/10/25 06:56:22;;;;;;;0.00;0.00;;;;;;;8.99;100.00;99726.44;5107331;27;20050;-43
2023/10/25 06:58:48;;;;;;;0.00;0.00;;;;;;;8.98;100.00;99722.09;5106602;28;21003;-44
2023/10/25 07:01:18;;;;;;;0.00;0.00;;;;;;;9.05;100.00;99713.25;5105781;28;20518;-44
2023/10/25 07:03:48;;;;;;;0.00;0.00;;;;;;;9.15;100.00;99711.03;5087649;28;20143;-44
2023/10/25 07:06:18;;;;;;;0.00;0.00;;;;;;;9.14;100.00;99706.69;5104724;28;20106;-44
2023/10/25 07:08:44;;;;;;;0.00;0.00;;;;;;;9.17;100.00;99701.75;5105901;28;20035;-43
2023/10/25 07:11:09;;;;;;;0.00;0.00;;;;;;;9.19;100.00;99706.94;5105530;28;20462;-44
2023/10/25 07:13:35;;;;;;;0.00;0.00;;;;;;;9.17;100.00;99708.97;5105698;28;20026;-43
2023/10/25 07:16:00;;;;;;;0.00;0.00;;;;;;;9.17;100.00;99709.81;5106156;28;20100;-44
2023/10/25 07:18:27;;;;;;;0.00;0.00;;;;;;;9.17;100.00;99704.44;5106310;28;20443;-44
2023/10/25 07:20:53;;;;;;;0.20;0.00;;;;;;;9.17;100.00;99695.56;5106024;28;20035;-44
2023/10/25 07:23:18;;;;;;;0.00;0.00;;;;;;;9.21;100.00;99707.53;5106339;28;20038;-44
2023/10/25 07:25:44;;;;;;;0.00;0.00;;;;;;;9.13;100.00;99708.53;5105621;28;20043;-44
2023/10/25 07:28:10;;;;;;;0.00;0.00;;;;;;;9.13;100.00;99713.91;5105613;28;20012;-45
2023/10/25 07:30:35;;;;;;;0.00;0.00;;;;;;;9.10;100.00;99706.25;5105812;28;20023;-44
2023/10/25 07:33:01;;;;;;;0.00;0.00;;;;;;;9.05;100.00;99713.25;5106225;28;20054;-44
2023/10/25 07:35:26;;;;;;;0.00;0.00;;;;;;;9.00;100.00;99708.47;5105722;28;20049;-44
2023/10/25 07:37:51;;;;;;;0.00;0.00;;;;;;;8.95;100.00;99694.81;5105633;28;20080;-44
2023/10/25 07:40:17;;;;;;;0.00;0.00;;;;;;;8.97;100.00;99703.50;5105587;28;20067;-44
2023/10/25 07:42:42;;;;;;;0.00;0.00;;;;;;;8.95;100.00;99701.03;5105029;28;20148;-42
2023/10/25 07:45:08;;;;;;;0.00;0.00;;;;;;;8.94;100.00;99698.53;5103687;28;20557;-44
2023/10/25 07:47:33;;;;;;;0.00;0.00;;;;;;;8.98;100.00;99697.97;5104650;28;20032;-44
2023/10/25 07:49:59;;;;;;;0.00;0.00;;;;;;;8.99;100.00;99688.88;5104134;28;20072;-44
2023/10/25 07:52:27;;;;;;;0.00;0.00;;;;;;;9.02;100.00;99685.78;5104338;28;20674;-44
2023/10/25 07:54:53;;;;;;;0.00;0.00;;;;;;;9.06;100.00;99688.06;5108184;27;20485;-44
2023/10/25 07:57:19;;;;;;;0.00;0.00;;;;;;;9.05;100.00;99689.09;5104420;28;20039;-43
2023/10/25 07:59:44;;;;;;;0.00;0.00;;;;;;;9.12;100.00;99692.63;5105900;28;21056;-42
2023/10/25 08:02:10;;;;;;;0.00;0.00;;;;;;;9.16;100.00;99681.31;5103575;28;20119;-44
2023/10/25 08:04:35;;;;;;;0.00;0.00;;;;;;;9.20;100.00;99676.34;5104775;28;20149;-44
2023/10/25 08:07:00;;;;;;;0.00;0.00;;;;;;;9.14;100.00;99674.50;5104291;28;20429;-44
2023/10/25 08:09:26;;;;;;;0.00;0.00;;;;;;;9.16;100.00;99675.94;5107566;27;20077;-44
2023/10/25 08:11:52;;;;;;;0.00;0.00;;;;;;;9.15;100.00;99673.44;5105184;28;20036;-44
2023/10/25 08:14:18;;;;;;;0.00;0.00;;;;;;;9.15;100.00;99658.16;5106448;27;20241;-45
2023/10/25 08:16:43;;;;;;;0.00;0.00;;;;;;;9.25;100.00;99673.06;5105495;27;20658;-43
2023/10/25 08:19:09;;;;;;;0.00;0.00;;;;;;;9.26;100.00;99663.97;5104800;28;20072;-44
2023/10/25 08:21:37;;;;;;;0.00;0.00;;;;;;;9.29;100.00;99669.75;5104250;28;20024;-44
2023/10/25 08:24:07;;;;;;;0.00;0.00;;;;;;;9.31;100.00;99673.06;5086453;28;20077;-44
2023/10/25 08:26:41;;;;;;;0.00;0.00;;;;;;;9.41;100.00;99668.16;5107000;27;20035;-44
2023/10/25 08:29:07;;;;;;;0.00;0.00;;;;;;;9.38;100.00;99663.19;5104518;28;20478;-44
2023/10/25 08:31:33;;;;;;;0.00;0.00;;;;;;;9.38;100.00;99663.19;5104777;28;20050;-44
2023/10/25 08:33:59;;;;;;;0.00;0.00;;;;;;;9.45;100.00;99668.56;5104489;28;20047;-44
2023/10/25 08:36:24;;;;;;;0.00;0.00;;;;;;;9.53;100.00;99670.22;5104762;28;20031;-44
2023/10/25 08:38:50;;;;;;;0.00;0.00;;;;;;;9.56;100.00;99664.47;5103929;28;20032;-44
2023/10/25 08:41:17;;;;;;;0.00;0.00;;;;;;;9.52;100.00;99669.41;5106419;28;20044;-43
2023/10/25 08:43:43;;;;;;;0.00;0.00;;;;;;;9.54;100.00;99661.97;5104561;28;20448;-44
2023/10/25 08:46:09;;;;;;;0.00;0.00;;;;;;;9.60;100.00;99660.34;5105451;28;20020;-43
2023/10/25 08:48:34;;;;;;;0.00;0.00;;;;;;;9.61;100.00;99661.97;5104167;28;20119;-44
2023/10/25 08:51:00;;;;;;;0.00;0.00;;;;;;;9.64;100.00;99657.03;5104021;28;20024;-44
2023/10/25 08:53:27;;;;;;;0.00;0.00;;;;;;;9.67;100.00;99655.81;5102995;28;20031;-44
2023/10/25 08:55:53;;;;;;;0.00;0.00;;;;;;;9.71;100.00;99657.03;5104589;28;20072;-44
2023/10/25 08:58:19;;;;;;;0.00;0.00;;;;;;;9.66;100.00;99654.13;5102135;28;20054;-43
2023/10/25 09:00:46;;;;;;;0.00;0.00;;;;;;;9.63;100.00;99652.69;5104422;28;20586;-44
2023/10/25 09:03:29;;;;;;;0.00;0.00;;;;;;;9.63;100.00;99649.16;5103015;28;20055;-45
2023/10/25 09:05:55;;;;;;;0.00;0.00;;;;;;;9.57;100.00;99640.06;5103684;28;20027;-44
2023/10/25 09:08:20;;;;;;;0.00;0.00;;;;;;;9.53;100.00;99641.53;5103638;28;20062;-43
2023/10/25 09:10:57;;;;;;;0.00;0.00;;;;;;;9.55;100.00;99634.06;5106676;28;20028;-46
2023/10/25 09:13:25;;;;;;;0.00;0.00;;;;;;;9.58;100.00;99638.22;5103169;28;20127;-47
2023/10/25 09:15:51;;;;;;;0.00;0.00;;;;;;;9.65;100.00;99637.19;5104379;28;20046;-46
2023/10/25 09:18:16;;;;;;;0.00;0.00;;;;;;;9.72;100.00;99629.16;5102843;28;20036;-46
2023/10/25 09:20:48;;;;;;;0.00;0.00;;;;;;;9.71;100.00;99619.41;5103487;28;20135;-46
2023/10/25 09:23:15;;;;;;;0.00;0.00;;;;;;;9.69;100.00;99616.13;5102031;28;20110;-45
2023/10/25 09:25:40;;;;;;;0.00;0.00;;;;;;;9.70;100.00;99611.59;5102282;28;20023;-45
2023/10/25 09:28:29;;;;;;;0.00;0.00;;;;;;;9.71;100.00;99608.66;5103305;28;20027;-45
2023/10/25 09:30:55;;;;;;;0.00;0.00;;;;;;;9.67;100.00;99602.06;5101896;28;20472;-44
2023/10/25 09:33:21;;;;;;;0.00;0.00;;;;;;;9.63;100.00;99598.94;5102347;28;20043;-44
2023/10/25 09:35:46;;;;;;;0.00;0.00;;;;;;;9.65;100.00;99596.91;5104401;28;20027;-43
2023/10/25 09:38:12;;;;;;;0.00;0.00;;;;;;;9.65;100.00;99588.84;5085895;28;20059;-45
2023/10/25 09:40:41;;;;;;;0.00;0.00;;;;;;;9.71;100.00;99589.03;5103862;28;20032;-45
2023/10/25 09:43:13;;;;;;;0.00;0.00;;;;;;;9.74;100.00;99584.09;5085347;28;20252;-45
2023/10/25 09:45:40;;;;;;;0.00;0.00;;;;;;;9.70;100.00;99576.66;5101953;28;20542;-45
2023/10/25 09:48:10;;;;;;;0.00;0.00;;;;;;;9.72;100.00;99580.78;5103442;28;20039;-45
2023/10/25 09:50:38;;;;;;;0.00;0.00;;;;;;;9.73;100.00;99573.56;5106333;28;20038;-45
2023/10/25 09:53:09;;;;;;;0.00;0.00;;;;;;;9.79;100.00;99578.91;5089063;28;20406;-45
2023/10/25 09:55:35;;;;;;;0.00;0.00;;;;;;;9.82;100.00;99572.28;5089841;28;20104;-45
2023/10/25 09:58:02;;;;;;;0.00;0.00;;;;;;;9.83;100.00;99569.41;5106947;28;20034;-45
2023/10/25 10:00:27;;;;;;;0.00;0.00;;;;;;;9.84;100.00;99568.34;5087797;28;20024;-45
2023/10/25 10:03:02;;;;;;;0.00;0.00;;;;;;;9.84;100.00;99568.34;5106333;28;20409;-46
2023/10/25 10:05:35;;;;;;;0.00;0.00;;;;;;;9.83;100.00;99561.34;5088488;28;20114;-47
2023/10/25 10:08:15;;;;;;;0.00;0.00;;;;;;;9.87;100.00;99549.16;5089140;28;20031;-49
2023/10/25 10:10:55;;;;;;;0.00;0.00;;;;;;;9.85;100.00;99551.22;5089704;28;20427;-47
2023/10/25 10:13:20;;;;;;;0.00;0.00;;;;;;;9.86;100.00;99546.66;5106144;28;20580;-47
2023/10/25 10:16:08;;;;;;;0.00;0.00;;;;;;;9.91;100.00;99543.34;5106335;28;20293;-48
2023/10/25 10:18:33;;;;;;;;;;;;;;;9.84;100.00;99532.59;5105433;28;20034;-47
2023/10/25 10:21:04;;;;;;;0.00;0.00;;;;;;;9.85;100.00;99535.09;5107388;28;20352;-48
2023/10/25 10:23:40;;;;;;;0.00;0.00;;;;;;;9.90;100.00;99539.84;5106980;28;20051;-49
2023/10/25 10:26:07;;;;;;;0.00;0.00;;;;;;;9.92;100.00;99535.06;5107775;28;20031;-48
2023/10/25 10:28:38;;;;;;;0.00;0.00;;;;;;;9.94;100.00;99543.75;5107808;28;20024;-47
2023/10/25 10:31:03;;;;;;;0.00;0.00;;;;;;;9.99;100.00;99530.50;5109557;28;20074;-46
2023/10/25 10:33:29;;;;;;;0.00;0.00;;;;;;;10.02;100.00;99523.88;5108521;28;20040;-46
2023/10/25 10:35:59;;;;;;;0.00;0.00;;;;;;;9.94;100.00;99521.44;5103816;27;20042;-47
2023/10/25 10:38:24;;;;;;;0.00;0.00;;;;;;;10.02;100.00;99523.88;5104726;28;20040;-45
2023/10/25 10:40:53;;;;;;;0.00;0.00;;;;;;;10.02;100.00;99529.28;5104555;28;20039;-45
2023/10/25 10:43:20;;;;;;;0.00;0.00;;;;;;;10.02;100.00;99518.53;5104205;28;20043;-46
2023/10/25 10:45:48;;;;;;;0.00;0.00;;;;;;;10.01;100.00;99517.69;5104833;28;20129;-46
2023/10/25 10:48:14;;;;;;;0.00;0.00;;;;;;;10.08;100.00;99520.34;5106656;28;20036;-42
2023/10/25 10:50:42;;;;;;;0.00;0.00;;;;;;;10.04;100.00;99511.91;5106585;28;20382;-41
2023/10/25 10:53:07;;;;;;;0.00;0.00;;;;;;;10.11;100.00;99511.88;5106772;28;20040;-44
2023/10/25 10:55:33;;;;;;;0.00;0.00;;;;;;;10.09;100.00;99511.28;5108227;27;20026;-42
2023/10/25 10:57:58;;;;;;;0.00;0.00;;;;;;;10.07;100.00;99506.09;5105087;28;20059;-43
2023/10/25 11:00:25;;;;;;;0.00;0.00;;;;;;;10.05;100.00;99508.16;5103891;28;20165;-43
2023/10/25 11:02:51;;;;;;;0.00;0.00;;;;;;;10.09;100.00;99508.59;5105166;28;20070;-41
2023/10/25 11:05:22;;;;;;;0.00;0.00;;;;;;;10.00;100.00;99499.91;5105514;27;20289;-41
2023/10/25 11:07:48;;;;;;;0.00;0.00;;;;;;;10.06;100.00;99498.25;5106181;28;20039;-41
2023/10/25 11:10:13;;;;;;;0.00;0.00;;;;;;;10.00;100.00;99488.31;5106117;28;20053;-40
2023/10/25 11:12:39;;;;;;;0.00;0.00;;;;;;;10.06;100.00;99482.94;5108722;28;20192;-40
2023/10/25 11:15:05;;;;;;;0.00;0.00;;;;;;;10.03;100.00;99482.53;5106740;28;20031;-44
2023/10/25 11:17:31;;;;;;;0.00;0.00;;;;;;;9.96;100.00;99487.13;5106754;28;20031;-43
2023/10/25 11:19:56;;;;;;;0.00;0.00;;;;;;;9.93;100.00;99483.00;5106695;28;20034;-44
2023/10/25 11:22:22;;;;;;;0.00;0.00;;;;;;;9.93;100.00;99492.91;5104460;28;20038;-42
2023/10/25 11:24:48;;;;;;;0.00;0.00;;;;;;;9.91;100.00;99473.47;5069775;28;20611;-44
2023/10/25 11:27:13;;;;;;;0.00;0.00;;;;;;;9.91;100.00;99477.00;5103927;28;20035;-43